Time;durP1;ratioP1;P1;durP2;ratioP2;P2;SDS_P1;SDS_P2;PMS_P1;PMS_P2;Temp;Humidity;BMP_temperature;BMP_pressure;BME280_temperature;BME280_humidity;BME280_pressure;Samples;Min_cycle;Max_cycle;Signal;HPM_P1;HPM_P2
2022/08/21 00:02:20;;;;;;;1.35;1.25;;;18.20;99.90;;;;;;5012973;28;20184;-63
2022/08/21 00:04:46;;;;;;;3.72;1.30;;;18.20;99.90;;;;;;5016657;28;20719;-63
2022/08/21 00:07:12;;;;;;;3.45;1.90;;;18.20;99.90;;;;;;5012868;28;20668;-62
2022/08/21 00:09:38;;;;;;;3.20;1.45;;;18.20;99.90;;;;;;5012791;28;20196;-63
2022/08/21 00:12:05;;;;;;;7.45;2.50;;;18.20;99.90;;;;;;5019962;28;20201;-63
2022/08/21 00:14:31;;;;;;;3.38;1.55;;;18.10;99.90;;;;;;5026302;28;20181;-63
2022/08/21 00:16:57;;;;;;;5.30;1.90;;;18.10;99.90;;;;;;5024010;28;20218;-65
2022/08/21 00:19:24;;;;;;;4.25;1.98;;;18.10;99.90;;;;;;5019844;28;20728;-64
2022/08/21 00:21:51;;;;;;;5.40;2.97;;;18.10;99.90;;;;;;5055831;28;20175;-63
2022/08/21 00:24:18;;;;;;;7.13;2.45;;;18.00;99.90;;;;;;5021351;28;20191;-63
2022/08/21 00:26:45;;;;;;;2.13;1.40;;;18.00;99.90;;;;;;5024335;28;20209;-64
2022/08/21 00:29:10;;;;;;;5.30;1.38;;;18.00;99.90;;;;;;4999685;28;20188;-63
2022/08/21 00:31:37;;;;;;;3.78;1.90;;;18.10;99.90;;;;;;5012690;28;20194;-63
2022/08/21 00:34:03;;;;;;;3.35;1.40;;;18.00;99.90;;;;;;5011573;28;20262;-64
2022/08/21 00:36:29;;;;;;;3.67;1.85;;;18.00;99.90;;;;;;5011610;28;20192;-65
2022/08/21 00:38:56;;;;;;;2.55;1.80;;;17.90;99.90;;;;;;5056477;28;20723;-63
2022/08/21 00:41:23;;;;;;;1.27;1.02;;;17.90;99.90;;;;;;5019555;28;20180;-64
2022/08/21 00:43:50;;;;;;;3.63;2.10;;;17.80;99.90;;;;;;5012980;28;20183;-63
2022/08/21 00:46:15;;;;;;;3.53;1.67;;;17.70;99.90;;;;;;5012345;28;20172;-63
2022/08/21 00:48:41;;;;;;;1.67;1.58;;;17.70;99.90;;;;;;5014638;28;20183;-63
2022/08/21 00:51:13;;;;;;;3.67;1.98;;;17.60;99.90;;;;;;5027756;28;20183;-63
2022/08/21 00:53:42;;;;;;;5.65;2.38;;;17.60;99.90;;;;;;5028464;28;20176;-63
2022/08/21 00:56:10;;;;;;;2.70;2.50;;;17.50;99.90;;;;;;5024133;28;20305;-63
2022/08/21 00:58:38;;;;;;;1.42;1.33;;;17.40;99.90;;;;;;5013270;28;20226;-63
2022/08/21 01:01:06;;;;;;;3.95;1.92;;;17.40;99.90;;;;;;5021933;28;20353;-64
2022/08/21 01:03:33;;;;;;;5.82;1.58;;;17.40;99.90;;;;;;5025013;28;20563;-63
2022/08/21 01:05:58;;;;;;;1.90;1.75;;;17.40;99.90;;;;;;5012557;28;20195;-63
2022/08/21 01:08:24;;;;;;;3.40;1.45;;;17.30;99.90;;;;;;5019398;28;20199;-64
2022/08/21 01:10:52;;;;;;;7.55;2.10;;;17.30;99.90;;;;;;5011046;28;20188;-64
2022/08/21 01:13:20;;;;;;;3.45;1.40;;;17.30;99.90;;;;;;5046261;28;20715;-64
2022/08/21 01:15:48;;;;;;;4.25;1.65;;;17.30;99.90;;;;;;5017955;28;20185;-64
2022/08/21 01:18:16;;;;;;;5.93;1.33;;;17.20;99.90;;;;;;5026610;28;20198;-63
2022/08/21 01:20:45;;;;;;;2.85;1.95;;;17.20;99.90;;;;;;5033490;28;20200;-64
2022/08/21 01:23:12;;;;;;;1.70;1.60;;;17.20;99.90;;;;;;5021816;28;20175;-65
2022/08/21 01:25:38;;;;;;;3.42;1.52;;;17.20;99.90;;;;;;5033278;28;20269;-63
2022/08/21 01:28:13;;;;;;;2.33;1.52;;;17.20;99.90;;;;;;5020253;28;20192;-63
2022/08/21 01:30:41;;;;;;;2.97;1.55;;;17.20;99.90;;;;;;5022447;28;20195;-64
2022/08/21 01:33:07;;;;;;;4.43;1.92;;;17.20;99.90;;;;;;5016013;28;20203;-64
2022/08/21 01:35:33;;;;;;;6.75;1.65;;;17.20;99.90;;;;;;5020042;28;20218;-63
2022/08/21 01:37:58;;;;;;;1.95;1.85;;;17.20;99.90;;;;;;5015052;28;20230;-63
2022/08/21 01:40:25;;;;;;;4.05;1.80;;;17.20;99.90;;;;;;5019985;28;20195;-63
2022/08/21 01:42:50;;;;;;;2.00;1.75;;;17.10;99.90;;;;;;5030358;28;20584;-63
2022/08/21 01:45:17;;;;;;;6.68;3.13;;;17.10;99.90;;;;;;5015905;28;20215;-64
2022/08/21 01:47:43;;;;;;;4.22;1.63;;;17.10;99.90;;;;;;5033412;28;20523;-63
2022/08/21 01:50:12;;;;;;;3.67;1.60;;;17.00;99.90;;;;;;5022966;28;20234;-63
2022/08/21 01:52:38;;;;;;;2.92;1.90;;;17.00;99.90;;;;;;5018407;28;20183;-63
2022/08/21 01:55:06;;;;;;;2.55;1.67;;;17.00;99.90;;;;;;4999136;28;20199;-63
2022/08/21 01:57:32;;;;;;;5.60;2.58;;;17.00;99.90;;;;;;5049190;28;20259;-64
2022/08/21 01:59:58;;;;;;;6.05;1.70;;;16.90;99.90;;;;;;5015670;28;20267;-63
2022/08/21 02:02:24;;;;;;;4.15;1.38;;;17.00;99.90;;;;;;5028240;28;20178;-63
2022/08/21 02:04:50;;;;;;;3.60;2.33;;;17.00;99.90;;;;;;5015356;28;20591;-63
2022/08/21 02:07:16;;;;;;;1.33;1.23;;;17.00;99.90;;;;;;5015184;28;20211;-63
2022/08/21 02:09:44;;;;;;;1.70;1.60;;;17.00;99.90;;;;;;5024650;28;20191;-63
2022/08/21 02:12:11;;;;;;;2.95;1.52;;;16.90;99.90;;;;;;5015475;28;20199;-63
2022/08/21 02:14:36;;;;;;;1.20;1.20;;;16.90;99.90;;;;;;5013402;28;20179;-63
2022/08/21 02:17:03;;;;;;;3.63;2.80;;;16.90;99.90;;;;;;5048423;28;20559;-63
2022/08/21 02:19:29;;;;;;;2.60;1.15;;;16.90;99.90;;;;;;5025799;28;20188;-63
2022/08/21 02:21:54;;;;;;;3.75;1.48;;;16.90;99.90;;;;;;5022036;28;20190;-63
2022/08/21 02:24:20;;;;;;;1.85;1.48;;;16.90;99.90;;;;;;5015747;28;20167;-63
2022/08/21 02:26:46;;;;;;;1.90;1.65;;;16.90;99.90;;;;;;5019032;28;20570;-64
2022/08/21 02:29:12;;;;;;;4.28;1.60;;;16.90;99.90;;;;;;5021595;28;20183;-63
2022/08/21 02:31:37;;;;;;;2.22;1.45;;;16.80;99.90;;;;;;5017601;28;20278;-64
2022/08/21 02:34:03;;;;;;;7.35;1.63;;;16.90;99.90;;;;;;5020369;28;20671;-63
2022/08/21 02:36:29;;;;;;;1.88;1.67;;;16.80;99.90;;;;;;5018749;28;20198;-63
2022/08/21 02:38:55;;;;;;;3.75;1.50;;;16.80;99.90;;;;;;5026474;28;20216;-63
2022/08/21 02:41:21;;;;;;;2.67;1.50;;;16.80;99.90;;;;;;5015953;28;20619;-63
2022/08/21 02:43:47;;;;;;;1.77;1.60;;;16.90;99.90;;;;;;5028218;28;20195;-63
2022/08/21 02:46:17;;;;;;;5.03;2.25;;;16.80;99.90;;;;;;5030674;28;20538;-63
2022/08/21 02:48:42;;;;;;;2.67;1.73;;;16.80;99.90;;;;;;5032537;28;20252;-63
2022/08/21 02:51:13;;;;;;;7.63;1.90;;;16.80;99.90;;;;;;5021530;28;20667;-64
2022/08/21 02:53:40;;;;;;;2.78;1.70;;;16.90;99.90;;;;;;5027077;28;20179;-63
2022/08/21 02:56:11;;;;;;;6.47;1.60;;;16.90;99.90;;;;;;5014692;28;20171;-63
2022/08/21 02:58:42;;;;;;;6.72;2.13;;;16.80;99.90;;;;;;5021304;28;20210;-64
2022/08/21 03:01:09;;;;;;;11.25;3.33;;;16.80;99.90;;;;;;5033886;28;20183;-64
2022/08/21 03:03:36;;;;;;;4.38;1.40;;;16.80;99.90;;;;;;5018314;28;20194;-64
2022/08/21 03:06:04;;;;;;;8.35;2.20;;;16.80;99.90;;;;;;5014362;28;20176;-63
2022/08/21 03:08:30;;;;;;;1.92;1.58;;;16.70;99.90;;;;;;5014113;28;20313;-64
2022/08/21 03:10:56;;;;;;;2.45;1.45;;;16.70;99.90;;;;;;5012080;28;20237;-63
2022/08/21 03:13:23;;;;;;;5.32;1.80;;;16.80;99.90;;;;;;5025470;28;20218;-63
2022/08/21 03:15:49;;;;;;;4.35;1.95;;;16.80;99.90;;;;;;5016139;28;20171;-63
2022/08/21 03:18:15;;;;;;;2.30;1.40;;;16.80;99.90;;;;;;5045035;28;20219;-65
2022/08/21 03:20:42;;;;;;;5.65;2.72;;;16.70;99.90;;;;;;5013707;28;20660;-64
2022/08/21 03:23:08;;;;;;;8.68;2.15;;;16.60;99.90;;;;;;5018904;28;20187;-63
2022/08/21 03:25:35;;;;;;;1.60;1.50;;;16.60;99.90;;;;;;5029904;28;20647;-64
2022/08/21 03:28:02;;;;;;;5.80;2.00;;;16.50;99.90;;;;;;5020489;28;20611;-63
2022/08/21 03:30:30;;;;;;;1.88;1.67;;;16.60;99.90;;;;;;5020851;28;20179;-63
2022/08/21 03:32:58;;;;;;;9.70;2.88;;;16.60;99.90;;;;;;5015494;28;20632;-63
2022/08/21 03:35:23;;;;;;;1.63;1.40;;;16.60;99.90;;;;;;5013284;28;20538;-63
2022/08/21 03:37:49;;;;;;;4.45;1.92;;;16.60;99.90;;;;;;5014390;28;20302;-64
2022/08/21 03:40:17;;;;;;;3.13;1.35;;;16.60;99.90;;;;;;5013333;28;20544;-63
2022/08/21 03:42:46;;;;;;;2.53;1.90;;;16.60;99.90;;;;;;5014133;28;20180;-63
2022/08/21 03:45:13;;;;;;;6.80;1.60;;;16.50;99.90;;;;;;5049391;28;20179;-63
2022/08/21 03:47:39;;;;;;;2.40;1.48;;;16.50;99.90;;;;;;5013414;28;20199;-63
2022/08/21 03:50:05;;;;;;;6.13;1.92;;;16.50;99.90;;;;;;5017781;28;20332;-63
2022/08/21 03:52:31;;;;;;;3.22;1.92;;;16.60;99.90;;;;;;5030509;28;20202;-63
2022/08/21 03:54:56;;;;;;;2.50;1.67;;;16.60;99.90;;;;;;5013786;28;20668;-64
2022/08/21 03:57:22;;;;;;;2.70;1.60;;;16.70;99.90;;;;;;5060280;28;20219;-63
2022/08/21 03:59:48;;;;;;;2.67;1.35;;;16.70;99.90;;;;;;5028946;28;20205;-64
2022/08/21 04:02:19;;;;;;;4.38;1.38;;;16.60;99.90;;;;;;5017963;28;20178;-63
2022/08/21 04:04:44;;;;;;;4.95;1.35;;;16.60;99.90;;;;;;5022029;28;20551;-63
2022/08/21 04:07:10;;;;;;;4.95;1.70;;;16.50;99.90;;;;;;5022711;28;20203;-63
2022/08/21 04:09:36;;;;;;;2.28;1.38;;;16.40;99.90;;;;;;5031844;28;20237;-64
2022/08/21 04:12:03;;;;;;;4.43;1.98;;;16.30;99.90;;;;;;5020858;28;20191;-63
2022/08/21 04:14:30;;;;;;;3.80;1.30;;;16.30;99.90;;;;;;5014042;28;20182;-63
2022/08/21 04:16:55;;;;;;;9.68;1.80;;;16.30;99.90;;;;;;5016329;28;20179;-63
2022/08/21 04:19:21;;;;;;;3.53;1.98;;;16.30;99.90;;;;;;5024428;28;20237;-63
2022/08/21 04:21:46;;;;;;;2.53;1.48;;;16.30;99.90;;;;;;5011795;28;20191;-63
2022/08/21 04:24:12;;;;;;;3.78;1.83;;;16.20;99.90;;;;;;5026576;28;20221;-63
2022/08/21 04:26:39;;;;;;;2.00;1.00;;;16.20;99.90;;;;;;5022577;28;20195;-63
2022/08/21 04:29:07;;;;;;;2.88;2.50;;;16.20;99.90;;;;;;5022171;28;20193;-63
2022/08/21 04:31:38;;;;;;;3.08;2.08;;;16.20;99.90;;;;;;5016682;28;20187;-63
2022/08/21 04:34:05;;;;;;;2.53;1.80;;;16.20;99.90;;;;;;5016757;28;20176;-63
2022/08/21 04:36:32;;;;;;;1.52;1.20;;;16.20;99.90;;;;;;5025273;28;20187;-64
2022/08/21 04:38:58;;;;;;;3.05;1.83;;;16.20;99.90;;;;;;5031889;28;20293;-63
2022/08/21 04:41:24;;;;;;;2.45;2.17;;;16.20;99.90;;;;;;5019234;28;20187;-63
2022/08/21 04:43:50;;;;;;;4.40;1.50;;;16.20;99.90;;;;;;5012842;28;20199;-63
2022/08/21 04:46:15;;;;;;;3.88;1.33;;;16.20;99.90;;;;;;5024280;28;20294;-63
2022/08/21 04:48:41;;;;;;;4.78;1.27;;;16.20;99.90;;;;;;5022327;28;20232;-63
2022/08/21 04:51:12;;;;;;;5.63;1.73;;;16.30;99.90;;;;;;5024095;28;20182;-63
2022/08/21 04:53:50;;;;;;;1.77;1.55;;;16.30;99.90;;;;;;5017721;28;20640;-63
2022/08/21 04:56:28;;;;;;;2.60;2.17;;;16.40;99.90;;;;;;5017074;28;20640;-64
2022/08/21 04:58:56;;;;;;;5.72;1.50;;;16.40;99.90;;;;;;5020348;28;20198;-65
2022/08/21 05:01:26;;;;;;;2.17;1.23;;;16.40;99.90;;;;;;5028264;28;20209;-63
2022/08/21 05:03:56;;;;;;;1.55;1.45;;;16.40;99.90;;;;;;5028772;28;20278;-63
2022/08/21 05:06:22;;;;;;;2.33;1.75;;;16.50;99.90;;;;;;5022002;28;20190;-64
2022/08/21 05:08:51;;;;;;;2.25;1.85;;;16.60;99.90;;;;;;5016780;28;20195;-63
2022/08/21 05:11:17;;;;;;;6.20;1.35;;;16.60;99.90;;;;;;5015942;28;20192;-63
2022/08/21 05:13:43;;;;;;;2.65;2.15;;;16.70;99.90;;;;;;5015975;28;20218;-63
2022/08/21 05:16:09;;;;;;;1.60;1.50;;;16.70;99.90;;;;;;5033453;28;20217;-63
2022/08/21 05:18:34;;;;;;;1.65;1.52;;;16.80;99.90;;;;;;5019585;28;21329;-63
2022/08/21 05:21:00;;;;;;;3.83;1.77;;;16.80;99.90;;;;;;5014723;28;20225;-63
2022/08/21 05:23:26;;;;;;;6.32;2.22;;;16.80;99.90;;;;;;4998847;28;20214;-63
2022/08/21 05:25:53;;;;;;;1.40;1.30;;;16.80;99.90;;;;;;5015776;28;20210;-63
2022/08/21 05:28:19;;;;;;;4.00;1.70;;;16.80;99.90;;;;;;5014398;28;20202;-64
2022/08/21 05:30:45;;;;;;;3.72;1.55;;;16.80;99.90;;;;;;5015782;28;20238;-64
2022/08/21 05:33:10;;;;;;;2.17;1.60;;;16.80;99.90;;;;;;5025951;28;20176;-63
2022/08/21 05:35:37;;;;;;;2.00;1.45;;;16.80;99.90;;;;;;5031165;28;20192;-64
2022/08/21 05:38:04;;;;;;;2.88;1.20;;;16.80;99.90;;;;;;5047150;28;20215;-64
2022/08/21 05:40:30;;;;;;;3.08;1.25;;;16.90;99.90;;;;;;5047453;28;20217;-64
2022/08/21 05:42:57;;;;;;;3.88;1.63;;;16.90;99.90;;;;;;5016246;28;20179;-64
2022/08/21 05:45:26;;;;;;;4.32;1.77;;;16.80;99.90;;;;;;5046916;28;20249;-64
2022/08/21 05:47:51;;;;;;;6.05;1.60;;;16.80;99.90;;;;;;5015798;28;20223;-64
2022/08/21 05:50:17;;;;;;;4.57;1.30;;;16.90;99.90;;;;;;5013683;28;20211;-63
2022/08/21 05:52:43;;;;;;;10.15;2.00;;;17.10;99.90;;;;;;5015448;28;20193;-64
2022/08/21 05:55:08;;;;;;;2.60;1.50;;;17.20;99.90;;;;;;5013512;28;20260;-64
2022/08/21 05:57:34;;;;;;;3.70;1.38;;;17.30;99.90;;;;;;5026045;28;20207;-64
2022/08/21 05:59:59;;;;;;;1.70;1.23;;;17.30;99.90;;;;;;5021808;28;20617;-64
2022/08/21 06:02:25;;;;;;;2.67;1.63;;;17.10;99.90;;;;;;5013816;28;20193;-64
2022/08/21 06:04:51;;;;;;;1.50;1.20;;;17.10;99.90;;;;;;5021318;28;20262;-64
2022/08/21 06:07:17;;;;;;;4.85;2.67;;;17.10;99.90;;;;;;5024689;28;20203;-64
2022/08/21 06:09:43;;;;;;;4.90;1.70;;;17.20;99.90;;;;;;5059394;28;20187;-65
2022/08/21 06:12:11;;;;;;;3.10;1.40;;;17.30;99.90;;;;;;5027192;28;20183;-65
2022/08/21 06:14:40;;;;;;;1.55;1.20;;;17.40;99.90;;;;;;5018717;28;20184;-64
2022/08/21 06:17:11;;;;;;;6.07;1.50;;;17.30;99.90;;;;;;5025458;28;20171;-64
2022/08/21 06:19:38;;;;;;;2.05;1.05;;;17.40;99.90;;;;;;5024028;28;20226;-64
2022/08/21 06:22:04;;;;;;;5.10;1.42;;;17.50;99.90;;;;;;5013379;28;20523;-64
2022/08/21 06:24:30;;;;;;;2.05;1.38;;;17.60;99.90;;;;;;5020323;28;20187;-64
2022/08/21 06:26:56;;;;;;;3.10;1.15;;;17.70;99.90;;;;;;5022567;28;20183;-64
2022/08/21 06:29:22;;;;;;;4.72;1.35;;;17.80;99.90;;;;;;5014894;28;20726;-65
2022/08/21 06:31:51;;;;;;;1.30;1.23;;;17.90;99.90;;;;;;5013769;28;20562;-66
2022/08/21 06:34:17;;;;;;;1.85;1.40;;;17.90;99.90;;;;;;5027349;28;20186;-64
2022/08/21 06:36:43;;;;;;;6.28;1.10;;;17.80;99.90;;;;;;5019541;28;20682;-64
2022/08/21 06:39:09;;;;;;;1.20;1.05;;;17.80;99.90;;;;;;5023124;28;20223;-64
2022/08/21 06:41:35;;;;;;;3.47;1.15;;;17.80;99.90;;;;;;5027359;28;20187;-64
2022/08/21 06:44:01;;;;;;;1.33;1.25;;;17.90;99.90;;;;;;5054625;28;20189;-64
2022/08/21 06:46:28;;;;;;;5.97;2.30;;;17.80;99.90;;;;;;5032878;28;20532;-64
2022/08/21 06:48:55;;;;;;;2.13;1.92;;;18.00;99.90;;;;;;5021410;28;20182;-64
2022/08/21 06:51:22;;;;;;;3.15;1.20;;;18.10;99.90;;;;;;5019724;28;20262;-65
2022/08/21 06:53:48;;;;;;;0.85;0.85;;;18.30;99.90;;;;;;5015457;28;20183;-66
2022/08/21 06:56:13;;;;;;;1.95;1.23;;;18.40;99.90;;;;;;5013254;28;20179;-64
2022/08/21 06:58:39;;;;;;;1.20;0.93;;;18.40;99.90;;;;;;5015143;28;20202;-64
2022/08/21 07:01:05;;;;;;;2.60;0.90;;;18.60;99.90;;;;;;5014342;28;20207;-64
2022/08/21 07:03:34;;;;;;;3.67;1.20;;;18.60;99.90;;;;;;5013568;28;20210;-67
2022/08/21 07:05:59;;;;;;;2.05;1.23;;;18.70;99.90;;;;;;5013615;28;20575;-64
2022/08/21 07:08:26;;;;;;;6.13;1.20;;;18.80;99.90;;;;;;5019618;28;20198;-64
2022/08/21 07:10:55;;;;;;;1.85;1.17;;;18.70;99.90;;;;;;5032529;28;20196;-64
2022/08/21 07:13:20;;;;;;;2.90;1.17;;;18.80;99.90;;;;;;5026844;28;20635;-64
2022/08/21 07:15:46;;;;;;;5.68;1.10;;;19.00;99.90;;;;;;5017227;28;20283;-64
2022/08/21 07:18:13;;;;;;;1.13;1.05;;;19.10;99.90;;;;;;5013817;28;20214;-64
2022/08/21 07:20:40;;;;;;;2.33;0.98;;;19.40;99.90;;;;;;5015238;28;20278;-64
2022/08/21 07:23:14;;;;;;;8.18;1.85;;;19.40;99.90;;;;;;5045048;28;20187;-64
2022/08/21 07:25:40;;;;;;;7.38;1.33;;;19.50;99.90;;;;;;5025695;28;20174;-64
2022/08/21 07:28:06;;;;;;;1.00;1.00;;;19.50;99.90;;;;;;5001976;28;20225;-64
2022/08/21 07:30:32;;;;;;;12.18;1.60;;;19.50;99.90;;;;;;5013635;28;20183;-64
2022/08/21 07:32:57;;;;;;;9.43;1.92;;;19.70;99.90;;;;;;5020733;28;20667;-64
2022/08/21 07:35:23;;;;;;;2.55;1.50;;;19.80;99.90;;;;;;5013712;28;20179;-64
2022/08/21 07:37:49;;;;;;;5.05;1.83;;;19.90;99.90;;;;;;5015367;28;20679;-64
2022/08/21 07:40:16;;;;;;;2.22;1.05;;;20.60;99.90;;;;;;5027841;28;20240;-64
2022/08/21 07:42:44;;;;;;;2.15;1.23;;;22.20;99.90;;;;;;5013918;28;20545;-62
2022/08/21 07:45:11;;;;;;;2.80;1.67;;;23.70;99.90;;;;;;5018186;28;20186;-65
2022/08/21 07:47:38;;;;;;;4.70;1.00;;;25.50;99.90;;;;;;5039915;28;20182;-67
2022/08/21 07:50:06;;;;;;;3.28;0.95;;;26.90;99.90;;;;;;5020428;28;20183;-67
2022/08/21 07:52:32;;;;;;;4.13;1.58;;;28.30;99.90;;;;;;5027199;28;20182;-68
2022/08/21 07:54:58;;;;;;;3.33;2.10;;;29.30;99.90;;;;;;5020159;28;20178;-68
2022/08/21 07:57:24;;;;;;;2.90;0.77;;;30.10;99.90;;;;;;5013769;28;20206;-64
2022/08/21 07:59:49;;;;;;;1.92;0.80;;;30.80;99.90;;;;;;5020661;28;20196;-62
2022/08/21 08:02:27;;;;;;;1.40;0.95;;;31.70;99.90;;;;;;5012059;28;20221;-61
2022/08/21 08:04:53;;;;;;;2.75;1.00;;;31.60;99.90;;;;;;5014326;28;20188;-61
2022/08/21 08:07:18;;;;;;;3.75;0.80;;;32.10;99.90;;;;;;5044328;28;20225;-61
2022/08/21 08:09:44;;;;;;;2.58;0.50;;;32.20;99.90;;;;;;5019094;28;20245;-62
2022/08/21 08:12:10;;;;;;;1.98;0.90;;;31.80;99.90;;;;;;5050692;28;20265;-61
2022/08/21 08:14:36;;;;;;;3.13;1.02;;;31.20;99.90;;;;;;5024714;28;20204;-59
2022/08/21 08:17:02;;;;;;;2.83;1.95;;;30.70;99.90;;;;;;5048625;28;20652;-60
2022/08/21 08:19:28;;;;;;;3.10;1.40;;;30.40;99.90;;;;;;5015266;28;20253;-60
2022/08/21 08:21:54;;;;;;;3.97;1.05;;;29.90;99.90;;;;;;5023707;28;20183;-62
2022/08/21 08:24:19;;;;;;;4.47;1.30;;;29.50;99.90;;;;;;5020963;28;20182;-61
2022/08/21 08:26:46;;;;;;;1.63;1.17;;;29.10;99.90;;;;;;5020993;28;20709;-61
2022/08/21 08:29:11;;;;;;;1.05;0.73;;;28.90;99.90;;;;;;5026969;28;20186;-61
2022/08/21 08:31:37;;;;;;;2.88;0.93;;;28.80;99.90;;;;;;5018932;28;20183;-61
2022/08/21 08:34:03;;;;;;;6.00;1.05;;;29.00;99.90;;;;;;5020780;28;20178;-60
2022/08/21 08:36:38;;;;;;;2.83;0.95;;;29.00;99.90;;;;;;5020517;28;20189;-61
2022/08/21 08:39:04;;;;;;;3.20;1.13;;;29.20;99.90;;;;;;5022740;28;20201;-60
2022/08/21 08:41:32;;;;;;;1.45;1.00;;;29.50;99.90;;;;;;5021558;28;20242;-62
2022/08/21 08:44:08;;;;;;;0.82;0.82;;;30.00;99.90;;;;;;5020114;28;20214;-61
2022/08/21 08:46:50;;;;;;;0.98;0.55;;;30.70;99.90;;;;;;5021273;28;20603;-61
2022/08/21 08:49:22;;;;;;;4.25;1.05;;;31.30;99.90;;;;;;5018405;28;20661;-61
2022/08/21 08:51:54;;;;;;;5.68;1.13;;;32.00;99.90;;;;;;5020302;28;20186;-62
2022/08/21 08:54:37;;;;;;;3.83;1.55;;;32.30;99.90;;;;;;5025002;28;20181;-61
2022/08/21 08:57:16;;;;;;;2.33;0.82;;;32.70;99.90;;;;;;5018747;28;20190;-60
2022/08/21 08:59:46;;;;;;;3.95;0.95;;;32.80;99.90;;;;;;5014288;28;20175;-61
2022/08/21 09:02:14;;;;;;;13.32;2.00;;;33.00;99.90;;;;;;5017398;28;20187;-61
2022/08/21 09:04:40;;;;;;;1.38;0.73;;;33.10;99.90;;;;;;5020003;28;20187;-60
2022/08/21 09:07:50;;;;;;;1.45;1.17;;;33.10;99.90;;;;;;5020473;28;20198;-60
2022/08/21 09:10:22;;;;;;;0.75;0.70;;;32.40;99.90;;;;;;5019479;28;20582;-60
2022/08/21 09:13:32;;;;;;;7.80;1.42;;;30.90;99.90;;;;;;5018212;28;20178;-61
2022/08/21 09:15:58;;;;;;;2.83;0.98;;;29.60;99.90;;;;;;5023580;28;20855;-61
2022/08/21 09:18:47;;;;;;;5.85;1.75;;;28.60;99.90;;;;;;5027202;28;20738;-67
2022/08/21 09:21:46;;;;;;;2.92;0.70;;;27.90;99.90;;;;;;5018127;28;20173;-68
2022/08/21 09:24:26;;;;;;;8.15;1.95;;;27.40;99.90;;;;;;5015269;28;20554;-68
2022/08/21 09:27:08;;;;;;;2.17;0.68;;;27.10;99.90;;;;;;5027702;28;20182;-70
2022/08/21 09:29:36;;;;;;;8.93;1.65;;;26.70;99.90;;;;;;5028424;28;20201;-68
2022/08/21 09:32:09;;;;;;;3.15;1.10;;;26.50;99.90;;;;;;5014709;28;20178;-68
2022/08/21 09:34:35;;;;;;;9.32;1.33;;;26.50;99.90;;;;;;5019803;28;20186;-68
2022/08/21 09:37:01;;;;;;;4.18;1.63;;;26.50;99.90;;;;;;5010671;28;20281;-68
2022/08/21 09:39:37;;;;;;;4.60;2.13;;;26.40;99.90;;;;;;5016715;28;20616;-68
2022/08/21 09:42:08;;;;;;;5.90;1.17;;;26.60;99.90;;;;;;5047609;28;20190;-68
2022/08/21 09:44:39;;;;;;;2.72;0.98;;;26.50;99.90;;;;;;5015816;28;20188;-68
2022/08/21 09:47:06;;;;;;;3.08;1.58;;;26.50;99.90;;;;;;5020288;28;20174;-68
2022/08/21 09:49:37;;;;;;;1.10;0.98;;;26.60;99.90;;;;;;5032619;28;20189;-67
2022/08/21 09:52:16;;;;;;;3.33;1.30;;;26.40;99.90;;;;;;5021068;28;20654;-68
2022/08/21 09:54:45;;;;;;;2.28;1.05;;;26.40;99.90;;;;;;5037006;28;20178;-68
2022/08/21 09:57:46;;;;;;;4.35;1.20;;;26.00;99.90;;;;;;5013266;28;20186;-68
2022/08/21 10:00:34;;;;;;;1.50;0.80;;;26.00;99.90;;;;;;5015075;28;20186;-68
2022/08/21 10:03:20;;;;;;;2.83;0.73;;;26.20;99.90;;;;;;5014842;28;20248;-70
2022/08/21 10:06:08;;;;;;;0.95;0.80;;;26.30;99.90;;;;;;5018873;28;20531;-68
2022/08/21 10:08:35;;;;;;;1.25;1.15;;;26.10;99.90;;;;;;5032336;28;20565;-66
2022/08/21 10:11:11;;;;;;;4.43;1.25;;;26.20;99.90;;;;;;5029537;28;20186;-68
2022/08/21 10:14:12;;;;;;;4.43;1.60;;;26.20;99.90;;;;;;5027188;28;20285;-71
2022/08/21 10:16:56;;;;;;;1.80;0.90;;;26.40;99.90;;;;;;5000112;28;20313;-60
2022/08/21 10:19:39;;;;;;;2.63;1.30;;;26.40;99.90;;;;;;5015071;28;20250;-61
2022/08/21 10:22:14;;;;;;;2.90;0.80;;;26.60;99.90;;;;;;5021459;28;20225;-60
2022/08/21 10:24:52;;;;;;;5.95;2.58;;;26.60;99.90;;;;;;5018221;28;20571;-61
2022/08/21 10:27:31;;;;;;;2.40;1.20;;;26.40;99.90;;;;;;5021576;28;20639;-60
2022/08/21 10:30:03;;;;;;;6.18;1.95;;;26.40;99.90;;;;;;5019013;28;20191;-61
2022/08/21 10:32:57;;;;;;;3.70;1.33;;;26.20;99.90;;;;;;5021485;28;20202;-61
2022/08/21 10:35:30;;;;;;;3.65;1.10;;;25.90;99.90;;;;;;5016074;28;20242;-61
2022/08/21 10:38:37;;;;;;;5.72;1.27;;;25.90;99.90;;;;;;5017576;28;20234;-61
2022/08/21 10:41:10;;;;;;;1.92;1.05;;;26.20;99.90;;;;;;5019248;28;20179;-60
2022/08/21 10:43:49;;;;;;;5.10;1.00;;;26.20;99.90;;;;;;5014149;28;20183;-59
2022/08/21 10:46:39;;;;;;;1.45;1.13;;;26.20;99.90;;;;;;5014630;28;20226;-60
2022/08/21 10:49:29;;;;;;;4.88;1.23;;;26.40;99.90;;;;;;5019792;28;20190;-62
2022/08/21 10:52:17;;;;;;;5.47;2.17;;;26.40;99.90;;;;;;5013556;28;20229;-60
2022/08/21 10:54:56;;;;;;;4.38;1.85;;;26.30;99.90;;;;;;5026317;28;20289;-60
2022/08/21 10:57:33;;;;;;;3.65;1.30;;;26.10;99.90;;;;;;5045784;28;20226;-60
2022/08/21 11:00:12;;;;;;;5.25;1.58;;;26.20;99.90;;;;;;5015516;28;20190;-60
2022/08/21 11:02:45;;;;;;;4.72;1.17;;;26.40;99.90;;;;;;5025006;28;20284;-60
2022/08/21 11:05:23;;;;;;;3.75;1.70;;;26.60;99.90;;;;;;5021744;28;20257;-59
2022/08/21 11:07:55;;;;;;;1.88;1.77;;;26.80;99.90;;;;;;5014562;28;20259;-60
2022/08/21 11:10:45;;;;;;;5.05;2.83;;;26.70;99.90;;;;;;5031758;28;20540;-59
2022/08/21 11:13:31;;;;;;;1.60;1.23;;;26.70;99.90;;;;;;5022726;28;20183;-58
2022/08/21 11:16:03;;;;;;;6.03;1.30;;;26.70;99.90;;;;;;5026024;28;20210;-58
2022/08/21 11:18:37;;;;;;;4.78;1.58;;;26.80;99.90;;;;;;5014168;28;20230;-61
2022/08/21 11:21:24;;;;;;;2.10;1.38;;;26.90;99.90;;;;;;5054595;28;20178;-63
2022/08/21 11:24:09;;;;;;;4.43;1.10;;;27.00;99.90;;;;;;5013709;28;20174;-63
2022/08/21 11:26:44;;;;;;;7.72;1.52;;;27.00;99.90;;;;;;5012959;28;20666;-63
2022/08/21 11:29:38;;;;;;;6.05;1.77;;;27.10;99.90;;;;;;5013366;28;20182;-63
2022/08/21 11:32:06;;;;;;;2.25;1.40;;;27.00;99.90;;;;;;5020323;28;20268;-62
2022/08/21 11:34:51;;;;;;;7.82;1.50;;;27.20;99.90;;;;;;5018158;28;20183;-59
2022/08/21 11:37:43;;;;;;;3.58;1.60;;;27.30;99.90;;;;;;5015833;28;20230;-59
2022/08/21 11:40:08;;;;;;;3.53;1.63;;;27.10;99.90;;;;;;5024013;28;20583;-59
2022/08/21 11:42:58;;;;;;;4.95;1.23;;;26.90;99.90;;;;;;5018978;28;20262;-58
2022/08/21 11:45:38;;;;;;;4.93;2.05;;;26.90;99.90;;;;;;5013751;28;20205;-58
2022/08/21 11:48:22;;;;;;;1.23;1.08;;;27.00;99.90;;;;;;5026236;28;20181;-60
2022/08/21 11:50:49;;;;;;;3.13;1.20;;;26.80;99.90;;;;;;5017747;28;20274;-59
2022/08/21 11:53:22;;;;;;;2.15;2.03;;;26.80;99.90;;;;;;5015770;28;20183;-59
2022/08/21 11:56:03;;;;;;;5.78;1.42;;;26.60;99.90;;;;;;5014615;28;20222;-59
2022/08/21 11:58:39;;;;;;;7.95;2.00;;;26.40;99.90;;;;;;5018774;28;20230;-59
2022/08/21 12:01:18;;;;;;;4.78;1.02;;;26.30;99.90;;;;;;5013634;28;20175;-59
2022/08/21 12:03:59;;;;;;;2.25;1.42;;;26.20;99.90;;;;;;5012738;28;20266;-59
2022/08/21 12:06:37;;;;;;;5.80;1.23;;;26.20;99.90;;;;;;5013504;28;20191;-59
2022/08/21 12:09:11;;;;;;;4.13;1.23;;;26.10;99.90;;;;;;5013125;28;20203;-58
2022/08/21 12:11:48;;;;;;;1.73;1.17;;;26.30;99.90;;;;;;5017843;28;20548;-59
2022/08/21 12:14:17;;;;;;;4.22;1.42;;;26.60;99.90;;;;;;5023081;28;20241;-59
2022/08/21 12:16:46;;;;;;;7.63;1.40;;;27.00;99.90;;;;;;5023742;28;20189;-59
2022/08/21 12:19:24;;;;;;;1.95;1.15;;;27.00;99.90;;;;;;5016565;28;20597;-60
2022/08/21 12:22:05;;;;;;;4.35;1.55;;;27.20;99.90;;;;;;5016494;28;20635;-61
2022/08/21 12:24:48;;;;;;;6.55;1.38;;;27.00;99.90;;;;;;5022084;28;20186;-62
2022/08/21 12:27:27;;;;;;;5.75;1.23;;;27.00;99.90;;;;;;5011985;28;20725;-62
2022/08/21 12:29:58;;;;;;;3.30;1.35;;;27.30;99.90;;;;;;5022589;28;20171;-63
2022/08/21 12:32:47;;;;;;;1.60;1.27;;;27.50;99.90;;;;;;5013347;28;20205;-62
2022/08/21 12:35:17;;;;;;;4.80;2.25;;;27.60;99.90;;;;;;5016234;28;20571;-61
2022/08/21 12:37:52;;;;;;;3.97;1.80;;;27.70;99.90;;;;;;5023047;28;20210;-61
2022/08/21 12:40:29;;;;;;;12.80;1.75;;;27.80;99.90;;;;;;5013426;28;20181;-58
2022/08/21 12:43:00;;;;;;;2.47;1.70;;;27.90;99.90;;;;;;5016459;28;20536;-59
2022/08/21 12:45:42;;;;;;;1.65;1.08;;;27.80;99.90;;;;;;5020674;28;20574;-59
2022/08/21 12:48:29;;;;;;;5.18;1.20;;;27.90;99.90;;;;;;5012246;28;20186;-58
2022/08/21 12:51:08;;;;;;;1.60;0.82;;;28.00;99.90;;;;;;5012704;28;20194;-59
2022/08/21 12:53:51;;;;;;;5.13;1.05;;;28.10;99.90;;;;;;5015932;28;20182;-58
2022/08/21 12:56:26;;;;;;;5.93;1.27;;;27.90;99.90;;;;;;5018643;28;20539;-59
2022/08/21 12:59:05;;;;;;;3.08;1.52;;;27.70;99.90;;;;;;5012533;28;20604;-58
2022/08/21 13:01:33;;;;;;;4.47;1.42;;;27.50;99.90;;;;;;5017079;28;20191;-58
2022/08/21 13:04:07;;;;;;;2.33;1.13;;;27.50;99.90;;;;;;5012244;28;20185;-58